Time;durP1;ratioP1;P1;durP2;ratioP2;P2;SDS_P1;SDS_P2;PMS_P1;PMS_P2;Temp;Humidity;BMP_temperature;BMP_pressure;BME280_temperature;BME280_humidity;BME280_pressure;Samples;Min_cycle;Max_cycle;Signal;HPM_P1;HPM_P2
2023/02/08 00:02:02;;;;;;;9.57;5.95;;;;;6.40;103716.00;;;;5053757;28;20570;-73
2023/02/08 00:04:29;;;;;;;9.10;5.35;;;;;6.40;103715.00;;;;5057755;28;20234;-73
2023/02/08 00:06:57;;;;;;;9.27;6.63;;;;;6.40;103706.00;;;;5048208;28;20202;-72
2023/02/08 00:09:24;;;;;;;9.13;6.18;;;;;6.40;103705.00;;;;5057053;28;20202;-72
2023/02/08 00:11:51;;;;;;;8.38;6.43;;;;;6.40;103703.00;;;;5063056;28;20210;-73
2023/02/08 00:14:18;;;;;;;9.52;6.65;;;;;6.40;103702.00;;;;5065547;28;20213;-73
2023/02/08 00:16:46;;;;;;;8.57;6.38;;;;;6.30;103698.00;;;;5066018;28;20199;-73
2023/02/08 00:19:14;;;;;;;10.93;6.45;;;;;6.30;103698.00;;;;5047983;28;20207;-73
2023/02/08 00:21:42;;;;;;;8.38;6.35;;;;;6.30;103702.00;;;;5048839;28;20202;-73
2023/02/08 00:24:09;;;;;;;9.23;6.20;;;;;6.30;103700.00;;;;5063551;28;20227;-73
2023/02/08 00:26:36;;;;;;;10.77;7.18;;;;;6.30;103708.00;;;;5055761;28;20203;-73
2023/02/08 00:29:05;;;;;;;9.60;6.78;;;;;6.20;103698.00;;;;5064774;28;20199;-73
2023/02/08 00:31:32;;;;;;;9.05;6.38;;;;;6.20;103690.00;;;;5050528;28;20195;-73
2023/02/08 00:33:59;;;;;;;10.55;7.32;;;;;6.20;103694.00;;;;5048576;28;20207;-73
2023/02/08 00:36:28;;;;;;;9.15;6.28;;;;;6.20;103691.00;;;;5063404;28;20195;-73
2023/02/08 00:38:55;;;;;;;9.27;6.63;;;;;6.20;103690.00;;;;5061127;28;20207;-73
2023/02/08 00:41:22;;;;;;;10.63;6.78;;;;;6.20;103678.00;;;;5066567;28;20187;-73
2023/02/08 00:43:50;;;;;;;9.93;6.70;;;;;6.20;103677.00;;;;5066349;28;20218;-73
2023/02/08 00:46:17;;;;;;;8.35;6.60;;;;;6.20;103680.00;;;;5066549;28;20226;-73
2023/02/08 00:48:44;;;;;;;9.73;6.45;;;;;6.10;103673.00;;;;5049254;28;20199;-73
2023/02/08 00:51:14;;;;;;;9.38;6.47;;;;;6.10;103664.00;;;;5047330;28;20200;-73
2023/02/08 00:53:45;;;;;;;10.20;7.05;;;;;6.10;103666.00;;;;5047035;28;20203;-74
2023/02/08 00:56:14;;;;;;;8.40;6.03;;;;;6.10;103661.00;;;;5060226;28;20191;-72
2023/02/08 00:58:42;;;;;;;9.77;6.32;;;;;6.10;103666.00;;;;5062538;28;21645;-73
2023/02/08 01:01:09;;;;;;;9.18;6.47;;;;;6.10;103665.00;;;;5051859;28;20196;-73
2023/02/08 01:03:38;;;;;;;10.25;6.70;;;;;6.10;103670.00;;;;5047892;28;20222;-73
2023/02/08 01:06:08;;;;;;;7.38;5.40;;;;;6.10;103661.00;;;;5056381;28;20276;-73
2023/02/08 01:08:36;;;;;;;9.68;6.25;;;;;6.00;103657.00;;;;5064310;28;20203;-73
2023/02/08 01:11:07;;;;;;;9.23;6.25;;;;;6.00;103670.00;;;;5062811;28;20187;-73
2023/02/08 01:13:36;;;;;;;8.73;6.50;;;;;6.00;103658.00;;;;5066690;28;20660;-72
2023/02/08 01:16:07;;;;;;;9.00;6.10;;;;;6.00;103664.00;;;;5056268;28;20203;-72
2023/02/08 01:18:35;;;;;;;9.60;6.32;;;;;6.00;103658.00;;;;5067826;28;20199;-73
2023/02/08 01:21:07;;;;;;;10.70;5.95;;;;;6.00;103661.00;;;;5068322;28;20198;-73
2023/02/08 01:23:34;;;;;;;8.98;6.32;;;;;6.00;103668.00;;;;5056526;28;20230;-73
2023/02/08 01:26:02;;;;;;;9.75;6.68;;;;;6.00;103679.00;;;;5048555;28;20200;-72
2023/02/08 01:28:30;;;;;;;9.30;6.65;;;;;5.90;103681.00;;;;5050412;28;20195;-72
2023/02/08 01:30:58;;;;;;;8.80;6.00;;;;;6.00;103685.00;;;;5050630;28;20629;-72
2023/02/08 01:33:25;;;;;;;7.95;5.68;;;;;6.00;103693.00;;;;5062124;28;20249;-72
2023/02/08 01:35:53;;;;;;;9.65;6.63;;;;;5.90;103688.00;;;;5053694;28;20206;-73
2023/02/08 01:38:20;;;;;;;8.98;5.82;;;;;5.90;103681.00;;;;5071217;28;20191;-73
2023/02/08 01:40:48;;;;;;;7.18;5.47;;;;;5.90;103683.00;;;;5062178;28;20198;-73
2023/02/08 01:43:23;;;;;;;8.65;6.13;;;;;5.90;103678.00;;;;5051963;28;20219;-72
2023/02/08 01:45:52;;;;;;;10.02;6.72;;;;;5.90;103679.00;;;;5060236;28;20202;-72
2023/02/08 01:48:23;;;;;;;9.07;6.07;;;;;5.90;103676.00;;;;5063476;28;20199;-72
2023/02/08 01:50:55;;;;;;;7.68;5.65;;;;;5.80;103667.00;;;;5051530;28;20207;-72
2023/02/08 01:53:25;;;;;;;8.32;5.72;;;;;5.80;103665.00;;;;5051583;28;20196;-73
2023/02/08 01:55:56;;;;;;;10.18;7.05;;;;;5.80;103660.00;;;;5051765;28;20200;-72
2023/02/08 01:58:27;;;;;;;9.32;6.22;;;;;5.80;103665.00;;;;5059902;28;20222;-73
2023/02/08 02:00:56;;;;;;;8.75;6.10;;;;;5.80;103653.00;;;;5052763;28;20192;-72
2023/02/08 02:03:24;;;;;;;10.05;6.22;;;;;5.80;103654.00;;;;5071174;28;20592;-72
2023/02/08 02:05:57;;;;;;;8.23;5.35;;;;;5.80;103651.00;;;;5053476;28;21041;-72
2023/02/08 02:08:25;;;;;;;8.02;6.05;;;;;5.80;103670.00;;;;5051226;28;20198;-73
2023/02/08 02:10:52;;;;;;;9.75;6.05;;;;;5.80;103668.00;;;;5055141;28;20192;-72
2023/02/08 02:13:23;;;;;;;8.13;5.63;;;;;5.70;103660.00;;;;5057401;28;20963;-72
2023/02/08 02:15:51;;;;;;;8.60;5.75;;;;;5.80;103667.00;;;;5057654;28;20199;-73
2023/02/08 02:18:24;;;;;;;8.80;5.65;;;;;5.70;103655.00;;;;5050551;28;20200;-73
2023/02/08 02:21:17;;;;;;;6.90;5.32;;;;;5.60;103651.00;;;;5051440;28;20192;-73
2023/02/08 02:24:11;;;;;;;7.90;5.47;;;;;5.60;103649.00;;;;5058878;28;20222;-72
2023/02/08 02:27:13;;;;;;;9.15;5.65;;;;;5.60;103642.00;;;;5052918;28;20192;-73
2023/02/08 02:30:01;;;;;;;8.60;5.70;;;;;5.60;103640.00;;;;5050568;28;20779;-73
2023/02/08 02:32:42;;;;;;;7.50;5.82;;;;;5.60;103637.00;;;;5055217;28;20221;-73
2023/02/08 02:35:17;;;;;;;6.63;5.03;;;;;5.60;103634.00;;;;5062732;28;20572;-72
2023/02/08 02:37:52;;;;;;;7.75;5.85;;;;;5.60;103632.00;;;;5068547;28;20195;-73
2023/02/08 02:40:28;;;;;;;8.70;6.43;;;;;5.60;103634.00;;;;5057477;28;20199;-72
2023/02/08 02:45:59;;;;;;;7.45;5.63;;;;;5.60;103630.00;;;;5048978;28;20280;-72
2023/02/08 02:48:34;;;;;;;7.15;5.38;;;;;5.50;103626.00;;;;5050659;28;20584;-73
2023/02/08 02:51:08;;;;;;;8.77;5.97;;;;;5.60;103630.00;;;;5051639;28;20199;-72
2023/02/08 02:53:51;;;;;;;7.78;5.63;;;;;5.50;103631.00;;;;5054931;28;20207;-72
2023/02/08 02:56:22;;;;;;;10.00;6.20;;;;;5.60;103634.00;;;;5050033;28;20557;-72
2023/02/08 02:58:50;;;;;;;10.85;6.10;;;;;5.60;103636.00;;;;5067581;28;20222;-72
2023/02/08 03:01:24;;;;;;;7.68;5.68;;;;;5.50;103633.00;;;;5054008;28;20203;-73
2023/02/08 03:03:53;;;;;;;8.18;5.82;;;;;5.60;103632.00;;;;5051975;28;20223;-74
2023/02/08 03:06:37;;;;;;;8.98;6.28;;;;;5.50;103630.00;;;;5055316;28;20292;-73
2023/02/08 03:09:30;;;;;;;8.50;5.47;;;;;5.40;103627.00;;;;5049465;28;20191;-73
2023/02/08 03:12:04;;;;;;;9.40;6.40;;;;;5.50;103633.00;;;;5044114;28;20546;-73
2023/02/08 03:14:39;;;;;;;9.38;6.28;;;;;5.50;103630.00;;;;5055512;28;20194;-73
2023/02/08 03:17:33;;;;;;;9.88;6.65;;;;;5.40;103633.00;;;;5066163;28;20205;-73
2023/02/08 03:20:08;;;;;;;7.90;5.95;;;;;5.50;103619.00;;;;5053203;28;20191;-73
2023/02/08 03:22:45;;;;;;;8.48;5.90;;;;;5.50;103628.00;;;;5053615;28;20259;-74
2023/02/08 03:25:17;;;;;;;8.55;5.90;;;;;5.50;103623.00;;;;5062094;28;20218;-73
2023/02/08 03:27:55;;;;;;;8.07;6.05;;;;;5.50;103620.00;;;;5060394;28;20205;-73
2023/02/08 03:30:30;;;;;;;8.85;6.03;;;;;5.50;103622.00;;;;5061671;28;20195;-74
2023/02/08 03:33:02;;;;;;;8.20;5.95;;;;;5.50;103619.00;;;;5054841;28;20202;-74
2023/02/08 03:35:36;;;;;;;9.38;5.78;;;;;5.50;103621.00;;;;5053075;28;20203;-74
2023/02/08 03:38:08;;;;;;;8.80;5.95;;;;;5.50;103617.00;;;;5063849;28;20561;-74
2023/02/08 03:40:39;;;;;;;8.15;5.32;;;;;5.50;103620.00;;;;5068804;28;20199;-73
2023/02/08 03:43:11;;;;;;;7.32;5.25;;;;;5.40;103618.00;;;;5058678;28;20199;-74
2023/02/08 03:45:43;;;;;;;9.38;5.57;;;;;5.40;103619.00;;;;5061863;28;20226;-74
2023/02/08 03:48:12;;;;;;;8.13;5.75;;;;;5.40;103619.00;;;;5060874;28;20199;-74
2023/02/08 03:50:43;;;;;;;7.97;5.43;;;;;5.40;103627.00;;;;5054069;28;20203;-74
2023/02/08 03:53:12;;;;;;;8.30;5.80;;;;;5.50;103622.00;;;;5059031;28;20190;-73
2023/02/08 03:55:40;;;;;;;8.95;6.20;;;;;5.40;103620.00;;;;5062334;28;20199;-73
2023/02/08 03:58:15;;;;;;;7.82;5.40;;;;;5.40;103624.00;;;;5060164;28;20215;-73
2023/02/08 04:00:48;;;;;;;9.57;6.07;;;;;5.40;103629.00;;;;5057641;28;20568;-73
2023/02/08 04:03:20;;;;;;;8.35;5.65;;;;;5.40;103625.00;;;;5064511;28;20210;-74
2023/02/08 04:05:49;;;;;;;11.70;5.38;;;;;5.40;103627.00;;;;5056409;28;20231;-74
2023/02/08 04:08:16;;;;;;;8.05;5.65;;;;;5.40;103635.00;;;;5061438;28;20194;-74
2023/02/08 04:10:43;;;;;;;8.30;5.65;;;;;5.40;103625.00;;;;5060159;28;20195;-74
2023/02/08 04:13:11;;;;;;;9.38;5.63;;;;;5.40;103634.00;;;;5057357;28;20187;-74
2023/02/08 04:15:38;;;;;;;7.93;5.53;;;;;5.40;103630.00;;;;5048811;28;21023;-74
2023/02/08 04:18:06;;;;;;;10.38;6.55;;;;;5.40;103633.00;;;;5054744;28;20194;-74
2023/02/08 04:20:34;;;;;;;8.52;5.85;;;;;5.40;103627.00;;;;5059537;28;20264;-74
2023/02/08 04:23:03;;;;;;;7.28;5.25;;;;;5.40;103623.00;;;;5064045;28;20199;-74
2023/02/08 04:25:30;;;;;;;7.90;5.38;;;;;5.50;103632.00;;;;5058622;28;20226;-74
2023/02/08 04:27:58;;;;;;;8.25;5.60;;;;;5.50;103625.00;;;;5049236;28;20191;-74
2023/02/08 04:30:26;;;;;;;8.93;6.07;;;;;5.50;103617.00;;;;5058709;28;20199;-74
2023/02/08 04:32:53;;;;;;;6.78;4.97;;;;;5.50;103627.00;;;;5048619;28;20192;-74
2023/02/08 04:35:20;;;;;;;9.73;5.80;;;;;5.50;103626.00;;;;5049495;28;20206;-74
2023/02/08 04:37:48;;;;;;;8.50;5.40;;;;;5.50;103615.00;;;;5054528;28;20195;-74
2023/02/08 04:40:17;;;;;;;11.93;5.43;;;;;5.50;103621.00;;;;5066276;28;20214;-74
2023/02/08 04:42:44;;;;;;;7.72;5.30;;;;;5.50;103625.00;;;;5058798;28;20196;-74
2023/02/08 04:45:12;;;;;;;9.80;5.80;;;;;5.50;103627.00;;;;5060854;28;20218;-74
2023/02/08 04:47:39;;;;;;;8.25;5.25;;;;;5.40;103617.00;;;;5061405;28;20235;-74
2023/02/08 04:50:07;;;;;;;8.48;5.72;;;;;5.50;103615.00;;;;5050039;28;20191;-74
2023/02/08 04:52:34;;;;;;;8.80;5.75;;;;;5.50;103618.00;;;;5051854;28;20203;-74
2023/02/08 04:55:01;;;;;;;7.47;5.15;;;;;5.40;103613.00;;;;5055610;28;20207;-72
2023/02/08 04:57:30;;;;;;;7.40;5.22;;;;;5.40;103608.00;;;;5047784;28;20219;-71
2023/02/08 04:59:57;;;;;;;8.52;5.80;;;;;5.40;103602.00;;;;5057454;28;20209;-72
2023/02/08 05:02:24;;;;;;;8.30;5.57;;;;;5.40;103598.00;;;;5052787;28;20200;-72
2023/02/08 05:04:52;;;;;;;9.02;6.03;;;;;5.40;103598.00;;;;5048109;28;20231;-72
2023/02/08 05:07:19;;;;;;;8.48;5.40;;;;;5.40;103603.00;;;;5048078;28;20203;-72
2023/02/08 05:09:46;;;;;;;9.38;5.97;;;;;5.40;103602.00;;;;5056300;28;20205;-72
2023/02/08 05:12:13;;;;;;;7.35;5.22;;;;;5.40;103595.00;;;;5070401;28;20443;-72
2023/02/08 05:14:42;;;;;;;9.02;5.72;;;;;5.40;103587.00;;;;5069674;28;20242;-73
2023/02/08 05:17:09;;;;;;;10.50;6.07;;;;;5.40;103593.00;;;;5054550;28;20199;-72
2023/02/08 05:19:37;;;;;;;9.68;5.65;;;;;5.40;103592.00;;;;5053545;28;20191;-72
2023/02/08 05:22:04;;;;;;;8.35;5.57;;;;;5.40;103595.00;;;;5056351;28;20203;-72
2023/02/08 05:24:32;;;;;;;6.35;5.18;;;;;5.40;103595.00;;;;5056842;28;20215;-72
2023/02/08 05:26:59;;;;;;;8.80;5.60;;;;;5.40;103604.00;;;;5061854;28;20834;-72
2023/02/08 05:29:29;;;;;;;8.95;6.15;;;;;5.40;103597.00;;;;5068032;28;20206;-71
2023/02/08 05:31:57;;;;;;;7.30;4.90;;;;;5.40;103598.00;;;;5072679;28;20194;-73
2023/02/08 05:34:24;;;;;;;6.82;5.20;;;;;5.40;103597.00;;;;5072901;28;20233;-72
2023/02/08 05:36:52;;;;;;;7.28;5.13;;;;;5.40;103598.00;;;;5065527;28;20214;-71
2023/02/08 05:39:19;;;;;;;9.65;6.15;;;;;5.40;103597.00;;;;5059543;28;20199;-71
2023/02/08 05:41:47;;;;;;;7.90;5.85;;;;;5.40;103589.00;;;;5072635;28;20215;-72
2023/02/08 05:44:14;;;;;;;8.32;6.10;;;;;5.40;103596.00;;;;5065339;28;20196;-71
2023/02/08 05:46:41;;;;;;;8.32;5.40;;;;;5.40;103606.00;;;;5073941;28;20226;-72
2023/02/08 05:49:10;;;;;;;7.93;5.40;;;;;5.40;103600.00;;;;5072176;28;20202;-73
2023/02/08 05:51:37;;;;;;;8.10;6.20;;;;;5.40;103594.00;;;;5058592;28;20208;-72
2023/02/08 05:54:04;;;;;;;7.38;5.47;;;;;5.40;103595.00;;;;5056606;28;20649;-72
2023/02/08 05:56:33;;;;;;;7.68;5.35;;;;;5.40;103602.00;;;;5060130;28;20203;-72
2023/02/08 05:59:02;;;;;;;7.22;5.22;;;;;5.40;103601.00;;;;5055337;28;20230;-72
2023/02/08 06:01:30;;;;;;;10.50;5.85;;;;;5.40;103598.00;;;;5055391;28;20192;-72
2023/02/08 06:03:59;;;;;;;8.95;5.38;;;;;5.40;103597.00;;;;5060437;28;20226;-72
2023/02/08 06:06:27;;;;;;;8.40;5.63;;;;;5.40;103597.00;;;;5071097;28;20226;-72
2023/02/08 06:08:55;;;;;;;7.95;5.45;;;;;5.40;103592.00;;;;5061086;28;20199;-72
2023/02/08 06:11:22;;;;;;;10.05;6.47;;;;;5.40;103586.00;;;;5065746;28;20238;-72
2023/02/08 06:13:49;;;;;;;8.80;5.82;;;;;5.40;103585.00;;;;5057272;28;20230;-72
2023/02/08 06:16:17;;;;;;;8.40;5.95;;;;;5.40;103583.00;;;;5053952;28;20199;-72
2023/02/08 06:18:44;;;;;;;8.60;5.88;;;;;5.40;103579.00;;;;5072952;28;20936;-72
2023/02/08 06:21:12;;;;;;;9.18;6.13;;;;;5.40;103584.00;;;;5051147;28;20196;-72
2023/02/08 06:23:41;;;;;;;9.05;6.53;;;;;5.40;103582.00;;;;5051052;28;20203;-72
2023/02/08 06:26:08;;;;;;;9.98;6.82;;;;;5.50;103582.00;;;;5054708;28;20215;-72
2023/02/08 06:28:35;;;;;;;8.18;5.70;;;;;5.50;103580.00;;;;5050607;28;20200;-72
2023/02/08 06:31:03;;;;;;;10.15;6.38;;;;;5.50;103582.00;;;;5055231;28;20206;-73
2023/02/08 06:33:30;;;;;;;8.57;6.20;;;;;5.50;103586.00;;;;5062721;28;20199;-73
2023/02/08 06:35:57;;;;;;;8.85;6.32;;;;;5.50;103586.00;;;;5056413;28;20195;-72
2023/02/08 06:38:25;;;;;;;8.23;6.45;;;;;5.50;103586.00;;;;5056637;28;20196;-74
2023/02/08 06:40:53;;;;;;;8.65;6.25;;;;;5.50;103597.00;;;;5058570;28;20191;-73
2023/02/08 06:43:21;;;;;;;9.48;6.20;;;;;5.50;103600.00;;;;5048491;28;20208;-74
2023/02/08 06:45:48;;;;;;;10.38;6.07;;;;;5.50;103601.00;;;;5051703;28;20704;-73
2023/02/08 06:48:15;;;;;;;9.27;6.57;;;;;5.60;103600.00;;;;5055553;28;20767;-73
2023/02/08 06:50:43;;;;;;;9.70;6.47;;;;;5.60;103603.00;;;;5057260;28;20208;-73
2023/02/08 06:53:10;;;;;;;8.65;6.13;;;;;5.60;103595.00;;;;5052817;28;20196;-73
2023/02/08 06:55:38;;;;;;;9.25;6.57;;;;;5.60;103596.00;;;;5052344;28;20195;-75
2023/02/08 06:58:07;;;;;;;8.75;6.50;;;;;5.50;103586.00;;;;5063264;28;20308;-74
2023/02/08 07:00:34;;;;;;;9.10;6.10;;;;;5.60;103594.00;;;;5050554;28;20204;-74
2023/02/08 07:03:01;;;;;;;9.55;6.63;;;;;5.60;103596.00;;;;5054674;28;20204;-74
2023/02/08 07:05:29;;;;;;;8.13;5.93;;;;;5.60;103594.00;;;;5050039;28;20227;-74
2023/02/08 07:07:56;;;;;;;9.40;6.63;;;;;5.60;103586.00;;;;5051083;28;20195;-74
2023/02/08 07:10:23;;;;;;;8.95;6.25;;;;;5.60;103577.00;;;;5050961;28;20208;-74
2023/02/08 07:12:51;;;;;;;9.27;6.10;;;;;5.60;103588.00;;;;5048056;28;20188;-74
2023/02/08 07:15:19;;;;;;;10.18;6.60;;;;;5.60;103593.00;;;;5050514;28;20199;-74
2023/02/08 07:17:46;;;;;;;8.57;6.20;;;;;5.60;103589.00;;;;5056736;28;20653;-74
2023/02/08 07:20:14;;;;;;;9.02;6.03;;;;;5.60;103587.00;;;;5060730;28;20203;-74
2023/02/08 07:22:42;;;;;;;9.80;6.47;;;;;5.60;103585.00;;;;5057082;28;20290;-74
2023/02/08 07:25:10;;;;;;;8.38;6.22;;;;;5.60;103590.00;;;;5060787;28;20215;-74
2023/02/08 07:27:37;;;;;;;10.30;6.88;;;;;5.70;103588.00;;;;5056267;28;20672;-75
2023/02/08 07:30:07;;;;;;;8.95;6.53;;;;;5.70;103597.00;;;;5056304;28;20196;-74
2023/02/08 07:32:35;;;;;;;9.98;6.38;;;;;5.70;103594.00;;;;5055102;28;20191;-74
2023/02/08 07:35:03;;;;;;;7.90;5.78;;;;;5.70;103598.00;;;;5058229;28;20199;-74
2023/02/08 07:37:31;;;;;;;9.18;6.25;;;;;5.70;103599.00;;;;5056715;28;20206;-74
2023/02/08 07:39:59;;;;;;;9.60;6.75;;;;;5.70;103604.00;;;;5053076;28;20202;-75
2023/02/08 07:42:26;;;;;;;9.35;6.45;;;;;5.70;103614.00;;;;5062968;28;20211;-73
2023/02/08 07:44:53;;;;;;;8.45;5.80;;;;;5.70;103609.00;;;;5069677;28;20191;-74
2023/02/08 07:47:20;;;;;;;10.48;6.68;;;;;5.80;103597.00;;;;5052376;28;20242;-74
2023/02/08 07:49:49;;;;;;;9.93;6.20;;;;;5.80;103596.00;;;;5048384;28;20187;-74
2023/02/08 07:52:16;;;;;;;11.13;7.07;;;;;5.90;103594.00;;;;5059658;28;20217;-73
2023/02/08 07:54:44;;;;;;;11.50;6.65;;;;;5.90;103597.00;;;;5068925;28;20203;-73
2023/02/08 07:57:11;;;;;;;10.05;7.18;;;;;5.90;103593.00;;;;5060832;28;20195;-74
2023/02/08 07:59:38;;;;;;;8.77;6.00;;;;;6.00;103593.00;;;;5052317;28;20199;-74
2023/02/08 08:02:06;;;;;;;9.20;6.38;;;;;6.00;103597.00;;;;5062298;28;20580;-74
2023/02/08 08:04:33;;;;;;;9.35;6.07;;;;;6.00;103585.00;;;;5066916;28;20210;-75
2023/02/08 08:07:02;;;;;;;9.80;7.03;;;;;6.10;103590.00;;;;5062928;28;20225;-74
2023/02/08 08:09:29;;;;;;;10.75;7.50;;;;;6.10;103582.00;;;;5050274;28;20539;-74
2023/02/08 08:11:56;;;;;;;10.43;6.97;;;;;6.20;103576.00;;;;5048476;28;20199;-74
2023/02/08 08:14:23;;;;;;;9.30;6.95;;;;;6.20;103570.00;;;;5048277;28;20214;-74
2023/02/08 08:16:50;;;;;;;8.95;6.97;;;;;6.30;103580.00;;;;5049934;28;20203;-74
2023/02/08 08:19:18;;;;;;;9.60;6.95;;;;;6.40;103573.00;;;;5048686;28;20222;-74
2023/02/08 08:21:45;;;;;;;12.48;6.35;;;;;6.40;103583.00;;;;5048573;28;20568;-74
2023/02/08 08:24:14;;;;;;;11.45;7.35;;;;;6.50;103595.00;;;;5054953;28;20203;-74
2023/02/08 08:26:41;;;;;;;9.52;7.18;;;;;6.50;103590.00;;;;5050269;28;20596;-74
2023/02/08 08:29:08;;;;;;;9.93;6.95;;;;;6.60;103590.00;;;;5048726;28;20199;-74
2023/02/08 08:31:37;;;;;;;12.15;6.57;;;;;6.70;103589.00;;;;5048791;28;20200;-74
2023/02/08 08:34:04;;;;;;;11.65;7.40;;;;;6.70;103585.00;;;;5057142;28;20285;-74
2023/02/08 08:36:32;;;;;;;9.15;7.00;;;;;6.80;103567.00;;;;5049234;28;20211;-74
2023/02/08 08:38:59;;;;;;;9.95;7.30;;;;;6.80;103571.00;;;;5048456;28;20222;-74
2023/02/08 08:41:28;;;;;;;11.00;7.22;;;;;6.80;103571.00;;;;5048862;28;20225;-74
2023/02/08 08:43:55;;;;;;;11.35;7.00;;;;;6.90;103574.00;;;;5055596;28;20286;-74
2023/02/08 08:46:22;;;;;;;9.63;6.88;;;;;7.00;103576.00;;;;5048744;28;20234;-74
2023/02/08 08:48:50;;;;;;;12.90;7.57;;;;;7.00;103575.00;;;;5047930;28;20195;-74
2023/02/08 08:51:17;;;;;;;11.88;7.03;;;;;7.10;103575.00;;;;5048681;28;20584;-74
2023/02/08 08:53:45;;;;;;;10.82;7.70;;;;;7.10;103571.00;;;;5048353;28;20210;-74
2023/02/08 08:56:12;;;;;;;11.13;7.68;;;;;7.20;103568.00;;;;5065293;28;20191;-74
2023/02/08 08:58:42;;;;;;;10.43;7.63;;;;;7.20;103563.00;;;;5047536;28;20226;-74
2023/02/08 09:01:09;;;;;;;12.48;7.50;;;;;7.30;103560.00;;;;5047447;28;20935;-74
2023/02/08 09:03:36;;;;;;;9.40;6.28;;;;;7.30;103566.00;;;;5053193;28;20218;-74
2023/02/08 09:06:04;;;;;;;9.93;7.28;;;;;7.40;103567.00;;;;5047731;28;20223;-74
2023/02/08 09:08:31;;;;;;;12.57;7.82;;;;;7.50;103569.00;;;;5059627;28;20545;-74
2023/02/08 09:11:05;;;;;;;11.65;7.60;;;;;7.40;103570.00;;;;5056118;28;20195;-74
2023/02/08 09:13:32;;;;;;;8.60;6.55;;;;;7.50;103575.00;;;;5047595;28;20227;-75
2023/02/08 09:16:05;;;;;;;11.85;7.93;;;;;7.50;103565.00;;;;5048052;28;20199;-74
2023/02/08 09:18:32;;;;;;;12.23;8.05;;;;;7.60;103562.00;;;;5047407;28;20223;-75
2023/02/08 09:21:04;;;;;;;9.35;6.90;;;;;7.60;103565.00;;;;5047701;28;20199;-74
2023/02/08 09:23:32;;;;;;;10.65;7.28;;;;;7.70;103569.00;;;;5048904;28;20207;-74
2023/02/08 09:25:59;;;;;;;10.95;7.35;;;;;7.70;103573.00;;;;5048177;28;20227;-74
2023/02/08 09:28:26;;;;;;;12.32;7.57;;;;;7.80;103578.00;;;;5050845;28;20581;-75
2023/02/08 09:30:53;;;;;;;9.88;6.80;;;;;7.90;103578.00;;;;5047631;28;20669;-74
2023/02/08 09:33:22;;;;;;;10.45;6.70;;;;;7.90;103578.00;;;;5047693;28;20192;-74
2023/02/08 09:35:49;;;;;;;10.63;7.35;;;;;8.00;103577.00;;;;5050856;28;20202;-74
2023/02/08 09:38:17;;;;;;;10.52;6.97;;;;;8.00;103578.00;;;;5067400;28;20203;-75
2023/02/08 09:40:56;;;;;;;10.50;7.07;;;;;8.00;103585.00;;;;5067128;28;20206;-75
2023/02/08 09:43:31;;;;;;;11.88;7.35;;;;;8.10;103571.00;;;;5052453;28;20194;-75
2023/02/08 09:46:04;;;;;;;9.93;7.03;;;;;8.20;103588.00;;;;5062670;28;20234;-75
2023/02/08 09:48:35;;;;;;;9.05;6.88;;;;;8.20;103586.00;;;;5047337;28;20226;-76
2023/02/08 09:51:09;;;;;;;10.35;6.93;;;;;8.20;103590.00;;;;5048232;28;20199;-75
2023/02/08 09:53:39;;;;;;;10.52;7.32;;;;;8.30;103588.00;;;;5047031;28;20192;-75
2023/02/08 09:56:12;;;;;;;10.20;6.90;;;;;8.40;103588.00;;;;5050730;28;20195;-75
2023/02/08 09:58:43;;;;;;;10.52;7.22;;;;;8.40;103586.00;;;;5052419;28;20219;-75
2023/02/08 10:01:18;;;;;;;10.15;6.88;;;;;8.40;103586.00;;;;5059298;28;20204;-75
2023/02/08 10:03:49;;;;;;;8.45;6.65;;;;;8.50;103580.00;;;;5063310;28;20187;-75
2023/02/08 10:06:18;;;;;;;9.13;6.65;;;;;8.60;103576.00;;;;5051054;28;20223;-76
2023/02/08 10:08:49;;;;;;;12.02;6.38;;;;;8.60;103582.00;;;;5050816;28;20199;-75
2023/02/08 10:11:33;;;;;;;10.18;7.40;;;;;8.60;103586.00;;;;5055033;28;20203;-75
2023/02/08 10:14:31;;;;;;;10.45;6.72;;;;;8.70;103577.00;;;;5051075;28;20196;-76
2023/02/08 10:17:09;;;;;;;10.18;6.95;;;;;8.80;103587.00;;;;5061049;28;20200;-75
2023/02/08 10:19:58;;;;;;;9.52;6.80;;;;;8.80;103588.00;;;;5063597;28;20199;-75
2023/02/08 10:22:36;;;;;;;9.48;6.97;;;;;9.00;103588.00;;;;5064487;28;20199;-75
2023/02/08 10:25:31;;;;;;;9.60;6.80;;;;;9.00;103592.00;;;;5059226;28;20206;-75
2023/02/08 10:28:36;;;;;;;7.28;5.80;;;;;9.10;103591.00;;;;5058068;28;20219;-75
2023/02/08 10:31:14;;;;;;;8.38;6.10;;;;;9.20;103595.00;;;;4969196;28;20206;-75
2023/02/08 10:33:51;;;;;;;10.10;7.20;;;;;9.30;103590.00;;;;5038162;28;20191;-75
2023/02/08 10:36:25;;;;;;;10.07;7.03;;;;;9.40;103597.00;;;;5061857;28;20560;-75
2023/02/08 10:38:55;;;;;;;8.80;6.20;;;;;9.50;103593.00;;;;5050614;28;20214;-75
2023/02/08 10:41:28;;;;;;;8.13;6.07;;;;;9.60;103593.00;;;;5051532;28;20222;-76
2023/02/08 10:44:02;;;;;;;9.13;6.47;;;;;9.70;103600.00;;;;5060877;28;20211;-76
2023/02/08 10:46:34;;;;;;;10.43;6.47;;;;;9.80;103600.00;;;;5060282;28;20238;-75
2023/02/08 10:49:09;;;;;;;9.68;6.60;;;;;9.90;103593.00;;;;5054693;28;20191;-76
2023/02/08 10:51:38;;;;;;;8.88;5.93;;;;;10.00;103590.00;;;;5054295;28;20194;-76
2023/02/08 10:54:05;;;;;;;8.98;6.05;;;;;10.10;103597.00;;;;5055311;28;20573;-76
2023/02/08 10:56:43;;;;;;;8.75;5.80;;;;;10.10;103591.00;;;;5055843;28;20924;-75
2023/02/08 10:59:18;;;;;;;8.13;5.65;;;;;10.20;103587.00;;;;5057700;28;20214;-76
2023/02/08 11:01:47;;;;;;;9.65;6.25;;;;;10.30;103586.00;;;;5055027;28;20238;-76
2023/02/08 11:04:14;;;;;;;8.13;6.10;;;;;10.40;103585.00;;;;5054241;28;20199;-75
2023/02/08 11:06:45;;;;;;;7.97;5.65;;;;;10.50;103592.00;;;;5055271;28;20218;-75
2023/02/08 11:09:22;;;;;;;8.27;6.05;;;;;10.50;103578.00;;;;5056932;28;20198;-75
2023/02/08 11:11:51;;;;;;;8.05;5.78;;;;;10.70;103578.00;;;;5055555;28;20687;-76
2023/02/08 11:14:23;;;;;;;7.72;6.03;;;;;10.70;103570.00;;;;5049461;28;20206;-75
2023/02/08 11:16:51;;;;;;;9.48;6.13;;;;;10.80;103576.00;;;;5052289;28;20230;-73
2023/02/08 11:19:24;;;;;;;11.05;6.43;;;;;10.80;103573.00;;;;5050311;28;20195;-72
2023/02/08 11:21:53;;;;;;;7.88;5.72;;;;;10.90;103567.00;;;;5053521;28;20779;-72
2023/02/08 11:24:27;;;;;;;8.00;5.88;;;;;10.90;103574.00;;;;5050316;28;20215;-73
2023/02/08 11:26:56;;;;;;;8.55;5.38;;;;;11.00;103577.00;;;;5056613;28;20222;-73
2023/02/08 11:29:25;;;;;;;7.15;5.82;;;;;11.00;103582.00;;;;5061393;28;20199;-74
2023/02/08 11:32:01;;;;;;;7.80;5.78;;;;;11.10;103577.00;;;;5057435;28;20191;-74
2023/02/08 11:34:31;;;;;;;7.75;5.75;;;;;11.20;103575.00;;;;5066952;28;20199;-74
2023/02/08 11:37:03;;;;;;;10.65;6.35;;;;;11.20;103576.00;;;;5053860;28;20210;-74
2023/02/08 11:39:38;;;;;;;8.13;5.68;;;;;11.20;103573.00;;;;5048923;28;20752;-74
2023/02/08 11:42:06;;;;;;;8.93;5.57;;;;;11.30;103573.00;;;;5056806;28;20194;-74
2023/02/08 11:44:36;;;;;;;8.15;5.57;;;;;11.40;103573.00;;;;5059260;28;20203;-74
2023/02/08 11:47:06;;;;;;;9.43;6.15;;;;;11.40;103556.00;;;;5051606;28;20235;-74
2023/02/08 11:49:38;;;;;;;7.40;5.43;;;;;11.40;103557.00;;;;5049542;28;20218;-74
2023/02/08 11:52:18;;;;;;;6.63;5.18;;;;;11.50;103551.00;;;;5056919;28;20202;-74
2023/02/08 11:54:46;;;;;;;6.80;4.97;;;;;11.50;103544.00;;;;5052712;28;20206;-74
2023/02/08 11:57:18;;;;;;;9.80;5.88;;;;;11.50;103541.00;;;;5063890;28;20203;-74
2023/02/08 11:59:45;;;;;;;7.13;5.22;;;;;11.60;103548.00;;;;5051380;28;20191;-74
2023/02/08 12:02:35;;;;;;;8.48;5.68;;;;;11.60;103546.00;;;;5051471;28;20207;-74
2023/02/08 12:05:04;;;;;;;7.72;5.38;;;;;11.70;103542.00;;;;5048933;28;20227;-74
2023/02/08 12:07:44;;;;;;;8.80;6.00;;;;;11.70;103544.00;;;;5054234;28;20225;-74
2023/02/08 12:10:24;;;;;;;8.57;6.70;;;;;11.80;103535.00;;;;5050816;28;20680;-74
2023/02/08 12:13:09;;;;;;;7.30;5.88;;;;;11.80;103517.00;;;;5068379;28;20194;-74
2023/02/08 12:15:45;;;;;;;8.48;5.57;;;;;11.90;103516.00;;;;5059009;28;20545;-74
2023/02/08 12:18:33;;;;;;;7.88;5.80;;;;;11.90;103521.00;;;;5064800;28;20191;-74
2023/02/08 12:21:06;;;;;;;7.22;5.15;;;;;12.00;103505.00;;;;5053525;28;20644;-74
2023/02/08 12:23:56;;;;;;;7.78;5.55;;;;;12.00;103496.00;;;;5063530;28;20191;-74
2023/02/08 12:27:03;;;;;;;7.57;5.85;;;;;12.00;103503.00;;;;5063968;28;20214;-74
2023/02/08 12:29:44;;;;;;;6.75;5.15;;;;;12.20;103498.00;;;;5037764;28;20218;-74
2023/02/08 12:32:38;;;;;;;6.82;5.60;;;;;12.20;103491.00;;;;5048938;28;20195;-74
2023/02/08 12:35:36;;;;;;;6.45;4.60;;;;;12.20;103480.00;;;;5041714;28;20196;-74